Time;durP1;ratioP1;P1;durP2;ratioP2;P2;SDS_P1;SDS_P2;PMS_P1;PMS_P2;Temp;Humidity;BMP_temperature;BMP_pressure;BME280_temperature;BME280_humidity;BME280_pressure;Samples;Min_cycle;Max_cycle;Signal;HPM_P1;HPM_P2
2022/08/23 00:01:47;;;;;;;0.63;0.63;;;19.40;91.00;;;;;;5093759;28;20474;-83
2022/08/23 00:04:17;;;;;;;0.70;0.70;;;19.40;90.80;;;;;;5094045;28;20448;-83
2022/08/23 00:06:45;;;;;;;0.73;0.73;;;19.30;90.90;;;;;;5094026;28;20448;-83
2022/08/23 00:09:13;;;;;;;1.10;0.83;;;19.30;90.80;;;;;;5093984;28;20455;-83
2022/08/23 00:11:42;;;;;;;0.70;0.70;;;19.30;90.90;;;;;;5093750;28;20488;-83
2022/08/23 00:14:14;;;;;;;0.60;0.60;;;19.20;91.10;;;;;;5093851;28;20513;-83
2022/08/23 00:16:42;;;;;;;1.03;0.80;;;19.20;91.30;;;;;;5093882;28;20795;-83
2022/08/23 00:19:12;;;;;;;0.70;0.57;;;19.20;91.50;;;;;;5093815;28;20444;-83
2022/08/23 00:21:40;;;;;;;0.60;0.60;;;19.20;91.50;;;;;;5093760;28;20456;-83
2022/08/23 00:24:10;;;;;;;0.70;0.70;;;19.10;91.30;;;;;;5093264;28;20467;-83
2022/08/23 00:26:54;;;;;;;0.50;0.50;;;19.10;91.50;;;;;;5093444;28;20450;-83
2022/08/23 00:29:23;;;;;;;0.73;0.63;;;19.00;91.60;;;;;;5093429;28;20911;-83
2022/08/23 00:31:52;;;;;;;0.67;0.67;;;19.00;92.00;;;;;;5093208;28;21019;-83
2022/08/23 00:34:20;;;;;;;1.17;0.70;;;18.90;91.60;;;;;;5093616;28;20476;-83
2022/08/23 00:36:48;;;;;;;1.07;0.60;;;18.90;92.20;;;;;;5093540;28;20448;-83
2022/08/23 00:39:15;;;;;;;1.10;0.80;;;18.90;92.10;;;;;;5093187;28;20436;-83
2022/08/23 00:41:43;;;;;;;1.73;1.10;;;18.90;92.40;;;;;;5093167;28;20466;-83
2022/08/23 00:49:56;;;;;;;0.70;0.70;;;18.80;92.20;;;;;;5093182;28;20408;-83
2022/08/23 00:52:28;;;;;;;0.67;0.67;;;18.80;92.10;;;;;;5093073;28;20838;-83
2022/08/23 00:54:55;;;;;;;0.90;0.90;;;18.90;92.40;;;;;;5095681;28;20926;-83
2022/08/23 00:57:22;;;;;;;0.93;0.70;;;18.80;92.30;;;;;;5097338;28;20453;-83
2022/08/23 00:59:49;;;;;;;1.63;0.87;;;18.80;92.60;;;;;;5097575;28;20455;-83
2022/08/23 01:02:18;;;;;;;0.70;0.70;;;18.70;92.60;;;;;;5097484;28;20486;-83
2022/08/23 01:04:51;;;;;;;1.13;1.00;;;18.70;92.70;;;;;;5097458;28;20439;-83
2022/08/23 01:07:27;;;;;;;1.13;0.80;;;18.70;92.60;;;;;;5097439;28;20459;-83
2022/08/23 01:10:00;;;;;;;0.80;0.70;;;18.70;93.00;;;;;;5097058;28;20432;-83
2022/08/23 01:12:32;;;;;;;0.77;0.70;;;18.60;93.00;;;;;;5097075;28;20917;-83
2022/08/23 01:15:03;;;;;;;1.90;0.77;;;18.60;93.10;;;;;;5097287;28;20433;-83
2022/08/23 01:17:38;;;;;;;2.00;0.80;;;18.50;93.00;;;;;;5097277;28;20434;-83
2022/08/23 01:20:09;;;;;;;0.83;0.80;;;18.50;93.00;;;;;;5096931;28;20435;-83
2022/08/23 01:22:42;;;;;;;0.60;0.60;;;18.50;93.30;;;;;;5097069;28;20475;-83
2022/08/23 01:25:13;;;;;;;0.80;0.60;;;18.40;93.60;;;;;;5096638;28;20995;-83
2022/08/23 01:27:42;;;;;;;1.07;0.70;;;18.40;93.50;;;;;;5097076;28;20436;-83
2022/08/23 01:30:12;;;;;;;0.60;0.60;;;18.40;93.70;;;;;;5096534;28;20444;-83
2022/08/23 01:32:49;;;;;;;0.70;0.70;;;18.30;93.80;;;;;;5096599;28;20500;-83
2022/08/23 01:35:17;;;;;;;0.80;0.70;;;18.30;93.60;;;;;;5096645;28;20438;-83
2022/08/23 01:37:45;;;;;;;1.70;0.70;;;18.20;93.70;;;;;;5096904;28;20444;-83
2022/08/23 01:40:14;;;;;;;0.70;0.70;;;18.20;94.00;;;;;;5096536;28;20954;-83
2022/08/23 01:42:41;;;;;;;0.80;0.60;;;18.10;94.00;;;;;;5096689;28;20824;-83
2022/08/23 01:45:10;;;;;;;0.70;0.63;;;18.10;94.10;;;;;;5096690;28;20444;-83
2022/08/23 01:47:38;;;;;;;1.43;0.70;;;18.10;94.10;;;;;;5096662;28;20573;-83
2022/08/23 01:50:06;;;;;;;1.90;1.00;;;18.10;94.30;;;;;;5096549;28;20450;-83
2022/08/23 01:52:33;;;;;;;0.80;0.63;;;18.00;94.40;;;;;;5096502;28;20475;-83
2022/08/23 01:55:00;;;;;;;0.40;0.40;;;17.90;94.50;;;;;;5096255;28;20443;-83
2022/08/23 01:57:29;;;;;;;0.67;0.67;;;17.90;94.60;;;;;;5096479;28;20452;-83
2022/08/23 01:59:56;;;;;;;0.80;0.60;;;17.80;94.60;;;;;;5096451;28;20455;-83
2022/08/23 02:02:22;;;;;;;0.50;0.50;;;17.80;94.70;;;;;;5096323;28;20820;-83
2022/08/23 02:04:49;;;;;;;0.60;0.60;;;17.70;94.70;;;;;;5096215;28;20812;-83
2022/08/23 02:07:16;;;;;;;1.10;0.77;;;17.70;94.90;;;;;;5096167;28;20443;-83
2022/08/23 02:09:43;;;;;;;0.73;0.70;;;17.60;95.00;;;;;;5096311;28;20459;-83
2022/08/23 02:12:10;;;;;;;0.50;0.50;;;17.60;95.00;;;;;;5095867;28;20835;-84
2022/08/23 02:14:40;;;;;;;0.53;0.53;;;17.50;95.10;;;;;;5095812;28;20935;-83
2022/08/23 02:17:08;;;;;;;0.57;0.57;;;17.50;95.20;;;;;;5096150;28;20446;-83
2022/08/23 02:19:36;;;;;;;1.03;0.73;;;17.40;95.20;;;;;;5096058;28;20448;-83
2022/08/23 02:22:06;;;;;;;1.13;1.03;;;17.40;95.20;;;;;;5095924;28;20467;-83
2022/08/23 02:24:33;;;;;;;0.60;0.60;;;17.40;95.40;;;;;;5095713;28;20488;-83
2022/08/23 02:27:02;;;;;;;0.77;0.60;;;17.40;95.80;;;;;;5095880;28;20448;-83
2022/08/23 02:29:29;;;;;;;1.07;0.70;;;17.40;95.80;;;;;;5095536;28;20463;-83
2022/08/23 02:31:58;;;;;;;0.60;0.60;;;17.40;95.90;;;;;;5095411;28;20949;-83
2022/08/23 02:34:25;;;;;;;3.37;1.17;;;17.30;96.00;;;;;;5095785;28;20440;-83
2022/08/23 02:36:52;;;;;;;0.60;0.60;;;17.30;96.20;;;;;;5095737;28;20459;-83
2022/08/23 02:39:19;;;;;;;1.03;0.83;;;17.30;96.40;;;;;;5095412;28;20526;-83
2022/08/23 02:41:46;;;;;;;0.60;0.60;;;17.30;96.30;;;;;;5095247;28;20469;-83
2022/08/23 02:44:13;;;;;;;0.87;0.83;;;17.30;96.40;;;;;;5096257;28;20456;-83
2022/08/23 02:46:41;;;;;;;1.13;0.50;;;17.30;96.60;;;;;;5095538;28;20448;-83
2022/08/23 02:49:10;;;;;;;0.63;0.63;;;17.20;96.60;;;;;;5095462;28;20853;-83
2022/08/23 02:51:37;;;;;;;0.60;0.60;;;17.20;96.80;;;;;;5095342;28;20484;-83
2022/08/23 02:54:04;;;;;;;0.60;0.60;;;17.10;96.90;;;;;;5095371;28;20448;-83
2022/08/23 02:56:32;;;;;;;1.80;1.20;;;17.10;97.10;;;;;;5095310;28;20451;-83
2022/08/23 02:58:59;;;;;;;1.10;0.67;;;17.10;97.00;;;;;;5095289;28;20478;-84
2022/08/23 03:01:29;;;;;;;1.67;0.83;;;17.10;97.10;;;;;;5095157;28;20551;-83
2022/08/23 03:03:56;;;;;;;0.83;0.80;;;17.00;97.20;;;;;;5095248;28;20435;-83
2022/08/23 03:06:25;;;;;;;0.70;0.70;;;17.00;97.20;;;;;;5095183;28;20433;-83
2022/08/23 03:08:51;;;;;;;1.07;0.80;;;17.00;97.30;;;;;;5095097;28;20444;-83
2022/08/23 03:11:20;;;;;;;0.80;0.70;;;17.00;97.50;;;;;;5094868;28;20491;-83
2022/08/23 03:13:48;;;;;;;0.60;0.60;;;17.00;97.50;;;;;;5094676;28;20448;-83
2022/08/23 03:16:15;;;;;;;1.50;1.40;;;17.00;97.60;;;;;;5094912;28;20448;-83
2022/08/23 03:18:42;;;;;;;0.87;0.63;;;16.90;97.70;;;;;;5094734;28;20444;-83
2022/08/23 03:21:10;;;;;;;2.80;0.77;;;16.90;97.80;;;;;;5094564;28;20463;-83
2022/08/23 03:23:39;;;;;;;0.70;0.60;;;16.90;97.90;;;;;;5094715;28;20789;-83
2022/08/23 03:26:08;;;;;;;0.70;0.70;;;16.90;98.10;;;;;;5094409;28;20507;-83
2022/08/23 03:28:37;;;;;;;0.60;0.60;;;16.80;98.20;;;;;;5094388;28;20459;-83
2022/08/23 03:31:05;;;;;;;1.10;0.90;;;16.80;98.20;;;;;;5094256;28;20487;-83
2022/08/23 03:33:32;;;;;;;1.10;0.67;;;16.80;98.40;;;;;;5094454;28;20448;-82
2022/08/23 03:36:00;;;;;;;0.70;0.70;;;16.80;98.50;;;;;;5094601;28;20459;-83
2022/08/23 03:38:27;;;;;;;1.20;1.10;;;16.80;98.60;;;;;;5094671;28;20499;-83
2022/08/23 03:40:55;;;;;;;1.07;0.87;;;16.70;98.50;;;;;;5094101;28;20447;-83
2022/08/23 03:43:22;;;;;;;0.80;0.80;;;16.70;98.60;;;;;;5094429;28;20452;-83
2022/08/23 03:45:49;;;;;;;1.10;0.63;;;16.70;98.80;;;;;;5094205;28;20429;-83
2022/08/23 03:48:16;;;;;;;0.50;0.50;;;16.70;98.80;;;;;;5094357;28;20448;-83
2022/08/23 03:50:43;;;;;;;0.60;0.60;;;16.70;99.00;;;;;;5094200;28;20534;-83
2022/08/23 03:53:10;;;;;;;0.60;0.60;;;16.70;99.10;;;;;;5094266;28;20478;-82
2022/08/23 03:55:37;;;;;;;1.27;1.17;;;16.60;98.80;;;;;;5094199;28;20440;-83
2022/08/23 03:58:05;;;;;;;0.60;0.50;;;16.60;98.90;;;;;;5094606;28;20443;-82
2022/08/23 04:00:31;;;;;;;0.57;0.57;;;16.60;99.40;;;;;;5094125;28;20440;-83
2022/08/23 04:02:58;;;;;;;1.13;1.10;;;16.60;99.30;;;;;;5094107;28;20585;-83
2022/08/23 04:05:25;;;;;;;0.93;0.77;;;16.60;99.30;;;;;;5094044;28;20440;-83
2022/08/23 04:07:53;;;;;;;1.00;0.70;;;16.60;99.60;;;;;;5094021;28;20444;-83
2022/08/23 04:10:19;;;;;;;0.93;0.50;;;16.60;99.70;;;;;;5093966;28;20444;-82
2022/08/23 04:12:46;;;;;;;0.67;0.67;;;16.60;99.80;;;;;;5093811;28;20494;-83
2022/08/23 04:15:14;;;;;;;0.97;0.73;;;16.50;99.90;;;;;;5093857;28;20439;-83
2022/08/23 04:17:42;;;;;;;0.57;0.57;;;16.50;99.90;;;;;;5093847;28;20452;-83
2022/08/23 04:20:09;;;;;;;0.70;0.67;;;16.50;99.90;;;;;;5093827;28;20444;-83
2022/08/23 04:22:36;;;;;;;0.93;0.60;;;16.40;99.90;;;;;;5093424;28;20516;-83
2022/08/23 04:25:04;;;;;;;1.97;0.87;;;16.40;99.90;;;;;;5093377;28;20479;-83
2022/08/23 04:27:31;;;;;;;0.60;0.60;;;16.30;99.90;;;;;;5093721;28;20455;-83
2022/08/23 04:29:58;;;;;;;1.37;0.60;;;16.30;99.90;;;;;;5092862;28;20477;-83
2022/08/23 04:32:26;;;;;;;0.60;0.60;;;16.30;99.90;;;;;;5093520;28;20533;-83
2022/08/23 04:34:53;;;;;;;1.30;0.83;;;16.40;99.90;;;;;;5093445;28;20459;-83
2022/08/23 04:37:20;;;;;;;0.90;0.67;;;16.40;99.90;;;;;;5093600;28;20461;-83
2022/08/23 04:42:31;;;;;;;1.30;0.60;;;16.40;99.90;;;;;;5093239;28;20472;-83
2022/08/23 04:44:58;;;;;;;1.00;0.80;;;16.40;99.90;;;;;;5093503;28;20452;-83
2022/08/23 04:47:26;;;;;;;0.77;0.53;;;16.40;99.90;;;;;;5093454;28;20452;-82
2022/08/23 04:49:53;;;;;;;0.60;0.60;;;16.30;99.90;;;;;;5093159;28;20952;-83
2022/08/23 04:52:20;;;;;;;1.80;0.87;;;16.30;99.90;;;;;;5093283;28;20484;-84
2022/08/23 04:54:47;;;;;;;0.93;0.90;;;16.40;99.90;;;;;;5093480;28;20785;-83
2022/08/23 04:57:15;;;;;;;1.00;0.90;;;16.50;99.90;;;;;;5093433;28;20451;-83
2022/08/23 04:59:42;;;;;;;0.90;0.90;;;16.50;99.90;;;;;;5093398;28;20526;-84
2022/08/23 05:02:09;;;;;;;0.80;0.80;;;16.60;99.90;;;;;;5093248;28;20531;-83
2022/08/23 05:04:37;;;;;;;0.93;0.93;;;16.70;99.90;;;;;;5093388;28;20455;-84
2022/08/23 05:07:04;;;;;;;0.80;0.80;;;16.70;99.90;;;;;;5093087;28;20453;-84
2022/08/23 05:09:31;;;;;;;1.20;0.80;;;16.80;99.90;;;;;;5093313;28;20440;-84
2022/08/23 05:11:57;;;;;;;1.20;1.10;;;16.80;99.90;;;;;;5092911;28;20986;-83
2022/08/23 05:14:24;;;;;;;0.93;0.93;;;16.90;99.90;;;;;;5093305;28;20451;-83
2022/08/23 05:16:51;;;;;;;0.83;0.73;;;16.90;99.90;;;;;;5093310;28;20428;-83
2022/08/23 05:19:18;;;;;;;3.20;1.23;;;17.00;99.90;;;;;;5093102;28;20456;-84
2022/08/23 05:21:50;;;;;;;0.70;0.67;;;17.00;99.90;;;;;;5093128;28;20897;-84
2022/08/23 05:24:21;;;;;;;1.73;1.20;;;17.00;99.90;;;;;;5092685;28;20541;-83
2022/08/23 05:26:48;;;;;;;1.53;1.20;;;17.10;99.90;;;;;;5093017;28;20409;-83
2022/08/23 05:29:14;;;;;;;1.50;0.97;;;17.10;99.90;;;;;;5092954;28;20500;-83
2022/08/23 05:31:41;;;;;;;1.33;0.90;;;17.10;99.90;;;;;;5093052;28;20483;-85
2022/08/23 05:34:08;;;;;;;0.60;0.60;;;17.10;99.90;;;;;;5093267;28;20485;-84
2022/08/23 05:36:36;;;;;;;0.80;0.80;;;17.10;99.90;;;;;;5093053;28;20448;-84
2022/08/23 05:39:05;;;;;;;1.20;1.10;;;17.10;99.90;;;;;;5093071;28;20860;-83
2022/08/23 05:41:31;;;;;;;4.17;1.10;;;17.20;99.90;;;;;;5095902;28;20459;-83
2022/08/23 05:43:58;;;;;;;2.53;1.07;;;17.30;99.90;;;;;;5096851;28;20786;-83
2022/08/23 05:46:25;;;;;;;1.20;1.07;;;17.30;99.90;;;;;;5096453;28;20450;-83
2022/08/23 05:48:52;;;;;;;0.93;0.83;;;17.40;99.90;;;;;;5096412;28;20951;-83
2022/08/23 05:51:21;;;;;;;3.07;1.57;;;17.50;99.90;;;;;;5096656;28;20473;-84
2022/08/23 05:53:50;;;;;;;0.90;0.80;;;17.50;99.90;;;;;;5096593;28;20451;-84
2022/08/23 05:56:20;;;;;;;1.73;1.03;;;17.60;99.90;;;;;;5096214;28;20965;-84
2022/08/23 05:58:48;;;;;;;1.00;0.90;;;17.70;99.90;;;;;;5096647;28;20900;-84
2022/08/23 06:01:15;;;;;;;1.33;1.17;;;17.90;99.90;;;;;;5096538;28;20475;-83
2022/08/23 06:03:43;;;;;;;1.10;1.00;;;18.10;99.90;;;;;;5096579;28;20436;-91
2022/08/23 06:06:11;;;;;;;2.47;1.33;;;18.30;99.90;;;;;;5096686;28;20475;-85
2022/08/23 06:08:39;;;;;;;3.07;2.87;;;18.50;99.90;;;;;;5096489;28;20539;-86
2022/08/23 06:11:08;;;;;;;1.73;1.10;;;18.60;99.90;;;;;;5096455;28;20464;-86
2022/08/23 06:13:39;;;;;;;2.20;1.57;;;18.80;99.90;;;;;;5097220;28;20476;-86
2022/08/23 06:16:08;;;;;;;2.97;1.47;;;18.90;99.90;;;;;;5111713;28;20572;-85
2022/08/23 06:18:35;;;;;;;2.83;1.07;;;19.10;99.90;;;;;;5113137;28;20425;-86
2022/08/23 06:21:03;;;;;;;2.53;1.80;;;19.20;99.90;;;;;;5099572;28;20472;-86
2022/08/23 06:23:31;;;;;;;0.90;0.90;;;19.40;99.90;;;;;;5096520;28;20447;-85
2022/08/23 06:25:57;;;;;;;2.30;1.40;;;19.50;99.90;;;;;;5095911;28;20483;-86
2022/08/23 06:28:24;;;;;;;1.33;0.90;;;19.70;99.90;;;;;;5096384;28;20456;-86
2022/08/23 06:30:55;;;;;;;1.13;1.13;;;19.80;99.90;;;;;;5096271;28;20448;-86
2022/08/23 06:33:22;;;;;;;1.20;1.13;;;20.00;99.90;;;;;;5095677;28;20463;-86
2022/08/23 06:35:50;;;;;;;1.17;0.97;;;20.20;99.90;;;;;;5096035;28;20443;-86
2022/08/23 06:38:17;;;;;;;2.47;1.47;;;20.40;99.90;;;;;;5096185;28;20444;-86
2022/08/23 06:40:44;;;;;;;8.50;1.47;;;20.50;99.90;;;;;;5097230;28;20517;-86
2022/08/23 06:43:11;;;;;;;1.03;0.93;;;20.70;99.70;;;;;;5095799;28;20440;-86
2022/08/23 06:45:38;;;;;;;1.47;0.90;;;20.90;99.40;;;;;;5096111;28;20432;-86
2022/08/23 06:48:08;;;;;;;0.90;0.90;;;21.00;98.90;;;;;;5095977;28;20439;-86
2022/08/23 06:50:35;;;;;;;0.77;0.77;;;21.10;99.00;;;;;;5095868;28;20530;-86
2022/08/23 06:53:02;;;;;;;1.43;0.80;;;21.20;98.30;;;;;;5095124;28;20858;-86
2022/08/23 06:55:29;;;;;;;2.30;0.70;;;21.30;98.10;;;;;;5095881;28;20801;-86
2022/08/23 06:57:56;;;;;;;1.23;1.13;;;21.30;97.70;;;;;;5096047;28;20462;-87
2022/08/23 07:00:23;;;;;;;1.30;1.20;;;21.40;97.70;;;;;;5095638;28;20427;-86
2022/08/23 07:02:50;;;;;;;1.60;0.93;;;21.50;98.10;;;;;;5095682;28;20463;-87
2022/08/23 07:05:18;;;;;;;1.10;0.80;;;21.70;98.50;;;;;;5095413;28;20965;-87
2022/08/23 07:07:45;;;;;;;1.67;0.93;;;21.90;97.70;;;;;;5095736;28;20450;-87
2022/08/23 07:10:12;;;;;;;1.20;1.00;;;22.00;97.40;;;;;;5096401;28;20456;-87
2022/08/23 07:12:40;;;;;;;0.87;0.87;;;22.20;97.10;;;;;;5095978;28;20479;-87
2022/08/23 07:15:09;;;;;;;1.40;0.97;;;22.40;96.20;;;;;;5095742;28;20447;-86
2022/08/23 07:17:35;;;;;;;1.57;1.47;;;22.50;95.80;;;;;;5095408;28;20408;-86
2022/08/23 07:20:03;;;;;;;0.97;0.87;;;22.60;95.00;;;;;;5095469;28;20443;-86
2022/08/23 07:22:31;;;;;;;0.80;0.80;;;22.70;95.00;;;;;;5094718;28;20463;-86
2022/08/23 07:24:58;;;;;;;1.20;1.10;;;22.80;95.10;;;;;;5094358;28;20483;-86
2022/08/23 07:27:25;;;;;;;1.13;1.07;;;22.90;94.30;;;;;;5095066;28;20512;-86
2022/08/23 07:29:52;;;;;;;1.40;0.93;;;23.10;93.90;;;;;;5095394;28;20451;-86
2022/08/23 07:32:18;;;;;;;1.10;1.00;;;23.20;93.50;;;;;;5094962;28;20494;-86
2022/08/23 07:34:45;;;;;;;1.43;1.00;;;23.20;93.60;;;;;;5095147;28;20205;-86
2022/08/23 07:37:13;;;;;;;0.90;0.90;;;23.50;93.30;;;;;;5094794;28;20438;-86
2022/08/23 07:39:41;;;;;;;0.83;0.80;;;23.80;92.90;;;;;;5095247;28;20192;-86
2022/08/23 07:42:08;;;;;;;1.00;0.90;;;24.00;92.50;;;;;;5094668;28;20727;-87
2022/08/23 07:44:35;;;;;;;1.33;1.27;;;24.20;91.80;;;;;;5094655;28;20233;-86
2022/08/23 07:47:01;;;;;;;1.20;1.10;;;24.30;91.40;;;;;;5094785;28;20209;-86
2022/08/23 07:49:28;;;;;;;0.98;0.98;;;24.20;91.50;;;;;;5094760;28;20661;-86
2022/08/23 07:51:57;;;;;;;1.30;1.20;;;24.20;91.40;;;;;;5094520;28;20232;-86
2022/08/23 07:54:24;;;;;;;0.82;0.82;;;24.30;91.50;;;;;;5094427;28;20197;-86
2022/08/23 07:56:52;;;;;;;1.00;0.90;;;24.30;92.00;;;;;;5094683;28;20209;-87
2022/08/23 07:59:19;;;;;;;0.93;0.90;;;24.40;92.50;;;;;;5094775;28;20212;-87
2022/08/23 08:01:46;;;;;;;1.27;1.23;;;24.60;91.90;;;;;;5094583;28;20218;-87
2022/08/23 08:04:13;;;;;;;1.30;1.10;;;24.70;90.70;;;;;;5093736;28;20561;-87
2022/08/23 08:06:44;;;;;;;1.00;0.90;;;24.90;90.30;;;;;;5094405;28;20182;-87
2022/08/23 08:09:12;;;;;;;1.60;0.95;;;25.00;90.40;;;;;;5094623;28;20186;-87
2022/08/23 08:11:43;;;;;;;2.55;1.38;;;25.10;90.20;;;;;;5094505;28;20221;-89
2022/08/23 08:14:11;;;;;;;1.25;1.13;;;25.20;87.70;;;;;;5095052;28;20308;-88
2022/08/23 08:16:41;;;;;;;1.23;0.73;;;25.40;88.30;;;;;;5094630;28;20205;-87
2022/08/23 08:19:09;;;;;;;1.83;1.35;;;25.50;87.60;;;;;;5094760;28;20205;-88
2022/08/23 08:21:38;;;;;;;1.13;1.00;;;25.60;87.60;;;;;;5094496;28;20229;-88
2022/08/23 08:24:06;;;;;;;0.70;0.70;;;25.70;86.00;;;;;;5094475;28;20209;-87
2022/08/23 08:26:33;;;;;;;1.00;1.00;;;25.80;82.80;;;;;;5094572;28;20197;-87
2022/08/23 08:29:00;;;;;;;2.65;0.90;;;25.90;82.00;;;;;;5094446;28;20205;-88
2022/08/23 08:31:28;;;;;;;1.10;1.00;;;25.90;80.10;;;;;;5094401;28;20291;-87
2022/08/23 08:33:55;;;;;;;1.73;1.00;;;26.00;80.50;;;;;;5094014;28;20225;-88
2022/08/23 08:36:31;;;;;;;1.67;0.95;;;26.00;81.20;;;;;;5094409;28;20573;-88
2022/08/23 08:38:58;;;;;;;1.45;0.75;;;26.10;79.40;;;;;;5094797;28;20590;-88
2022/08/23 08:41:43;;;;;;;0.80;0.80;;;26.30;77.00;;;;;;5094428;28;20252;-88
2022/08/23 08:44:22;;;;;;;0.85;0.85;;;26.40;76.90;;;;;;5094536;28;20192;-88
2022/08/23 08:46:55;;;;;;;0.80;0.80;;;26.50;76.50;;;;;;5094491;28;20207;-88
2022/08/23 08:49:36;;;;;;;0.93;0.90;;;26.60;76.50;;;;;;5094226;28;20224;-88
2022/08/23 08:52:16;;;;;;;8.60;1.48;;;26.70;75.90;;;;;;5094161;28;20229;-88
2022/08/23 08:54:45;;;;;;;0.90;0.90;;;26.80;75.90;;;;;;5094263;28;20204;-88
2022/08/23 08:57:15;;;;;;;0.85;0.85;;;27.00;75.50;;;;;;5094265;28;20205;-87
2022/08/23 08:59:51;;;;;;;1.17;1.17;;;27.40;74.40;;;;;;5094058;28;20190;-88
2022/08/23 09:02:22;;;;;;;0.70;0.70;;;27.90;73.10;;;;;;5094102;28;20591;-88
2022/08/23 09:04:49;;;;;;;1.42;1.10;;;28.40;71.70;;;;;;5094437;28;20184;-87
2022/08/23 09:07:25;;;;;;;0.80;0.80;;;28.70;69.50;;;;;;5094193;28;20201;-87
2022/08/23 09:10:13;;;;;;;1.55;0.90;;;28.70;70.60;;;;;;5094820;28;20190;-87
2022/08/23 09:12:51;;;;;;;1.05;0.70;;;28.70;69.30;;;;;;5096160;28;20221;-88
2022/08/23 09:15:29;;;;;;;1.42;0.75;;;28.60;66.40;;;;;;5099530;28;20189;-85
2022/08/23 09:18:02;;;;;;;0.80;0.80;;;28.40;65.40;;;;;;5097399;28;20193;-85
2022/08/23 09:20:30;;;;;;;1.20;0.90;;;28.40;64.70;;;;;;5097713;28;20209;-90
2022/08/23 09:23:07;;;;;;;1.35;0.90;;;28.30;66.70;;;;;;5098805;28;20222;-87
2022/08/23 09:25:34;;;;;;;0.93;0.90;;;28.50;66.10;;;;;;5098267;28;20319;-89
2022/08/23 09:28:01;;;;;;;0.80;0.80;;;28.60;65.70;;;;;;5098344;28;20201;-89
2022/08/23 09:30:50;;;;;;;1.20;0.90;;;28.70;65.20;;;;;;5098017;28;20234;-88
2022/08/23 09:33:20;;;;;;;1.23;0.80;;;28.80;64.00;;;;;;5097897;28;20202;-88
2022/08/23 09:36:06;;;;;;;0.82;0.82;;;28.80;62.70;;;;;;5098309;28;20603;-88
2022/08/23 09:38:33;;;;;;;0.93;0.93;;;28.70;61.30;;;;;;5098476;28;20196;-89
2022/08/23 09:41:00;;;;;;;0.70;0.70;;;28.40;61.90;;;;;;5098160;28;20225;-88
2022/08/23 09:43:30;;;;;;;2.72;0.98;;;28.50;62.40;;;;;;5098518;28;20205;-90
2022/08/23 09:46:00;;;;;;;0.65;0.65;;;28.50;62.00;;;;;;5098782;28;20197;-86
2022/08/23 09:48:38;;;;;;;0.68;0.68;;;28.60;62.50;;;;;;5096932;28;20300;-86
2022/08/23 09:51:18;;;;;;;1.70;1.17;;;28.70;61.30;;;;;;5096934;28;20221;-86
2022/08/23 09:53:49;;;;;;;0.80;0.80;;;28.80;61.80;;;;;;5097628;28;20708;-90
2022/08/23 09:56:22;;;;;;;2.10;1.00;;;29.00;59.80;;;;;;5098411;28;20699;-92
2022/08/23 09:58:52;;;;;;;0.70;0.70;;;29.10;58.30;;;;;;5098902;28;20185;-90
2022/08/23 10:01:22;;;;;;;0.90;0.88;;;29.10;57.60;;;;;;5098632;28;20301;-89
2022/08/23 10:04:10;;;;;;;0.82;0.77;;;29.30;58.70;;;;;;5098827;28;20638;-89
2022/08/23 10:06:37;;;;;;;0.90;0.90;;;29.30;57.10;;;;;;5098657;28;20201;-90
2022/08/23 10:09:06;;;;;;;0.85;0.80;;;29.30;56.80;;;;;;5098374;28;20201;-90
2022/08/23 10:11:38;;;;;;;0.70;0.70;;;29.10;56.50;;;;;;5097987;28;20228;-90
2022/08/23 10:14:05;;;;;;;0.77;0.60;;;29.00;56.60;;;;;;5099524;28;20217;-91
2022/08/23 10:16:40;;;;;;;0.60;0.60;;;28.70;56.50;;;;;;5098199;28;20705;-91
2022/08/23 10:19:16;;;;;;;1.45;0.80;;;28.70;57.10;;;;;;5098535;28;20186;-90
2022/08/23 10:21:53;;;;;;;2.80;0.70;;;28.60;57.20;;;;;;5098464;28;20279;-90
2022/08/23 10:24:33;;;;;;;0.75;0.75;;;28.70;56.60;;;;;;5098266;28;20255;-90
2022/08/23 10:30:13;;;;;;;1.05;0.70;;;28.80;57.20;;;;;;5065860;28;20206;-87
2022/08/23 10:32:52;;;;;;;0.70;0.70;;;28.90;56.20;;;;;;5096942;28;20237;-86
2022/08/23 10:35:30;;;;;;;0.77;0.77;;;28.90;56.40;;;;;;5096708;28;20236;-88
2022/08/23 10:38:27;;;;;;;0.75;0.73;;;29.00;57.00;;;;;;5097003;28;20185;-89
2022/08/23 10:41:01;;;;;;;0.70;0.70;;;29.20;55.50;;;;;;5074735;28;20205;-89
2022/08/23 10:43:35;;;;;;;0.90;0.80;;;29.40;56.20;;;;;;5096538;28;20198;-89
2022/08/23 10:46:10;;;;;;;0.70;0.60;;;29.60;55.10;;;;;;5096346;28;20187;-88
2022/08/23 10:48:50;;;;;;;1.13;1.00;;;29.80;55.00;;;;;;5096386;28;20194;-89
2022/08/23 10:51:23;;;;;;;0.70;0.70;;;30.00;54.20;;;;;;5096296;28;20232;-88
2022/08/23 10:53:58;;;;;;;0.70;0.70;;;30.00;54.10;;;;;;5096136;28;20217;-87
2022/08/23 10:56:26;;;;;;;1.13;1.02;;;30.00;54.00;;;;;;5096220;28;20189;-89
2022/08/23 10:58:58;;;;;;;0.80;0.80;;;29.70;54.50;;;;;;5096166;28;20206;-89
2022/08/23 11:01:31;;;;;;;0.90;0.90;;;29.60;55.20;;;;;;5095641;28;20232;-88
2022/08/23 11:04:03;;;;;;;0.90;0.90;;;29.80;55.60;;;;;;5096024;28;20550;-88
2022/08/23 11:06:54;;;;;;;0.65;0.60;;;30.10;55.80;;;;;;5096063;28;20186;-88
2022/08/23 11:09:31;;;;;;;0.75;0.75;;;30.50;54.80;;;;;;5095581;28;20197;-88
2022/08/23 11:12:14;;;;;;;0.75;0.70;;;30.80;54.60;;;;;;5095635;28;20719;-88
2022/08/23 11:14:45;;;;;;;0.90;0.85;;;30.60;54.30;;;;;;5095524;28;20567;-88
2022/08/23 11:17:25;;;;;;;0.70;0.70;;;30.40;53.80;;;;;;5095750;28;20178;-88
2022/08/23 11:19:55;;;;;;;0.80;0.80;;;30.10;52.00;;;;;;5095751;28;20564;-89
2022/08/23 11:22:26;;;;;;;1.30;0.82;;;29.80;52.40;;;;;;5096018;28;20227;-89
2022/08/23 11:24:57;;;;;;;0.68;0.60;;;29.50;53.30;;;;;;5095417;28;20236;-89
2022/08/23 11:27:31;;;;;;;1.00;0.70;;;29.50;53.80;;;;;;5095534;28;20208;-88
2022/08/23 11:29:59;;;;;;;0.98;0.98;;;29.40;53.90;;;;;;5096541;28;20198;-89
2022/08/23 11:32:45;;;;;;;0.90;0.80;;;29.40;54.10;;;;;;5095401;28;20229;-89
2022/08/23 11:35:34;;;;;;;1.23;0.95;;;29.30;53.50;;;;;;5095478;28;20259;-88
2022/08/23 11:38:04;;;;;;;0.82;0.82;;;29.10;53.40;;;;;;5095423;28;20199;-88
2022/08/23 11:40:57;;;;;;;1.15;1.00;;;28.90;53.60;;;;;;5095431;28;20224;-89
2022/08/23 11:43:29;;;;;;;0.70;0.70;;;28.80;53.50;;;;;;5095661;28;20186;-91
2022/08/23 11:46:15;;;;;;;0.77;0.60;;;28.80;53.50;;;;;;5095430;28;20181;-88
2022/08/23 11:48:54;;;;;;;0.85;0.75;;;28.70;53.50;;;;;;5095325;28;20589;-88
2022/08/23 11:51:32;;;;;;;0.60;0.60;;;28.70;53.60;;;;;;5095699;28;20278;-90
2022/08/23 11:54:21;;;;;;;0.70;0.70;;;28.70;53.60;;;;;;5095456;28;20212;-90
2022/08/23 11:57:18;;;;;;;0.77;0.60;;;28.80;53.50;;;;;;5095024;28;20198;-88
2022/08/23 12:00:07;;;;;;;0.52;0.52;;;28.80;53.50;;;;;;5095111;28;20621;-88
2022/08/23 12:02:46;;;;;;;0.80;0.80;;;28.90;53.30;;;;;;5094870;28;20712;-87
2022/08/23 12:05:31;;;;;;;1.15;1.05;;;29.00;52.70;;;;;;5095001;28;20209;-90
2022/08/23 12:08:31;;;;;;;0.80;0.70;;;28.80;52.40;;;;;;5094782;28;20186;-88
2022/08/23 12:11:04;;;;;;;0.63;0.60;;;28.60;53.60;;;;;;5069142;28;20221;-88
2022/08/23 12:13:52;;;;;;;0.70;0.70;;;28.70;53.60;;;;;;5094571;28;20186;-87
2022/08/23 12:16:37;;;;;;;1.00;0.88;;;28.60;52.70;;;;;;5094249;28;20189;-88
2022/08/23 12:19:10;;;;;;;0.70;0.70;;;28.50;53.40;;;;;;5094505;28;20193;-88
2022/08/23 12:21:50;;;;;;;0.70;0.70;;;28.50;54.10;;;;;;5094425;28;20240;-87
2022/08/23 12:24:25;;;;;;;0.70;0.70;;;28.40;53.50;;;;;;5094338;28;20594;-88
2022/08/23 12:27:11;;;;;;;0.80;0.70;;;28.40;53.30;;;;;;5094578;28;20630;-87
2022/08/23 12:29:51;;;;;;;0.60;0.60;;;28.40;53.00;;;;;;5094364;28;20225;-88
2022/08/23 12:32:29;;;;;;;0.73;0.73;;;28.30;52.80;;;;;;5094888;28;20220;-88
2022/08/23 12:35:20;;;;;;;0.70;0.70;;;28.30;52.80;;;;;;5093951;28;20751;-88
2022/08/23 12:37:53;;;;;;;0.73;0.73;;;28.10;53.50;;;;;;5094257;28;20208;-87
2022/08/23 12:40:25;;;;;;;0.77;0.77;;;28.00;53.00;;;;;;5094419;28;20276;-88
2022/08/23 12:43:04;;;;;;;0.70;0.70;;;28.00;53.30;;;;;;5094135;28;20232;-87
2022/08/23 12:45:37;;;;;;;0.70;0.70;;;27.90;53.00;;;;;;5093914;28;20192;-88
2022/08/23 12:48:07;;;;;;;0.70;0.68;;;27.70;53.90;;;;;;5093931;28;20212;-87
2022/08/23 12:50:37;;;;;;;1.23;0.70;;;27.70;53.80;;;;;;5093200;28;20213;-87
2022/08/23 12:53:06;;;;;;;0.70;0.60;;;27.60;54.40;;;;;;5093990;28;20221;-86
2022/08/23 12:55:36;;;;;;;1.00;0.90;;;27.70;53.80;;;;;;5094023;28;20229;-87
2022/08/23 12:58:06;;;;;;;0.70;0.70;;;27.60;53.50;;;;;;5094338;28;20201;-88
2022/08/23 13:00:36;;;;;;;0.70;0.70;;;27.50;54.10;;;;;;5093922;28;20205;-88
2022/08/23 13:03:07;;;;;;;1.15;0.90;;;27.40;53.70;;;;;;5093779;28;20221;-87
2022/08/23 13:05:39;;;;;;;1.10;0.77;;;27.30;54.00;;;;;;5093862;28;20186;-87
2022/08/23 13:08:09;;;;;;;0.70;0.70;;;27.30;53.70;;;;;;5093748;28;20182;-87
2022/08/23 13:10:38;;;;;;;0.77;0.77;;;27.20;54.60;;;;;;5094490;28;20201;-87
2022/08/23 13:13:10;;;;;;;1.48;1.08;;;27.10;55.00;;;;;;5093614;28;20550;-87
2022/08/23 13:15:44;;;;;;;0.60;0.60;;;27.10;55.40;;;;;;5093490;28;20217;-87
2022/08/23 13:18:11;;;;;;;0.73;0.73;;;27.10;55.30;;;;;;5093301;28;20625;-86